To NAV CANADA Home Page Login to a new session Search on AWWS site Feedback and Comments Disclaimer Vers la page française équivalente Tips FAQ What's new on the site To the Forecasts and Observations / NOTAM section To "File a Flight Plan" website Publications and other links Update of the User's profile FIC Telephone Numbers My Weather Data Folder Route Weather Data Regional Weather Data Local Weather Data To the Forecasts and Observations / NOTAM section
Request Generated 03/31/2015 at 08:25:14 UTC . Weather information available at that time is displayed.

METAR/TAF

SWIFT CURRENT/SK    (show WxCam)

METAR CYYN 310800Z AUTO 14012KT 9SM OVC095 04/M05 A2983 RMK SLP116=
METAR CYYN 310700Z AUTO 13009KT 9SM FEW110 02/M04 A2985 RMK SLP124=
METAR CYYN 310600Z AUTO 13010KT 9SM CLR 02/M04 A2987 RMK SLP133=

TAF CYYN 310541Z 3106/3118 13012KT P6SM SCT090
BECMG 3114/3116 22012KT SKC
RMK FCST BASED ON AUTO OBS. NXT FCST BY 311200Z=
Your time UTC time
Weather data provided by Environment Canada and NAV CANADA